Terminal Aerodrome Forecast
Issued by NWS Wilmington, OH

Current Version | Previous Version | Graphics & Text | Print | Product List | Glossary On
Versions: 1 2 3 4 5 6 7 8 9 10 11 12 13 14 15 16 17 18
000
FTUS41 KILN 191700 RRA
TAFILN
TAF
KILN 191747Z 1918/2018 20018G27KT P6SM SCT080 BKN120
     FM200000 26018G28KT P6SM VCSH OVC025
     FM200400 25013KT P6SM OVC025
     FM200900 25010KT P6SM OVC035
     FM201400 24013G22KT P6SM OVC035=

USA.gov is the U.S. government's official web portal to all federal, state and local government web resources and services.